sensor_id;sensor_type;location;lat;lon;timestamp;P1;durP1;ratioP1;P2;durP2;ratioP2
24419;SDS011;12599;52.426;13.330;2022-08-21T00:02:15;7.97;;;7.17;;
24419;SDS011;12599;52.426;13.330;2022-08-21T00:04:43;9.07;;;7.57;;
24419;SDS011;12599;52.426;13.330;2022-08-21T00:07:08;11.40;;;8.10;;
24419;SDS011;12599;52.426;13.330;2022-08-21T00:09:34;9.50;;;7.90;;
24419;SDS011;12599;52.426;13.330;2022-08-21T00:12:01;9.20;;;7.90;;
24419;SDS011;12599;52.426;13.330;2022-08-21T00:14:26;11.27;;;8.53;;
24419;SDS011;12599;52.426;13.330;2022-08-21T00:16:52;9.53;;;7.87;;
24419;SDS011;12599;52.426;13.330;2022-08-21T00:19:18;10.63;;;7.93;;
24419;SDS011;12599;52.426;13.330;2022-08-21T00:21:43;12.80;;;8.20;;
24419;SDS011;12599;52.426;13.330;2022-08-21T00:24:09;9.17;;;7.40;;
24419;SDS011;12599;52.426;13.330;2022-08-21T00:26:35;11.40;;;8.87;;
24419;SDS011;12599;52.426;13.330;2022-08-21T00:29:00;9.73;;;8.00;;
24419;SDS011;12599;52.426;13.330;2022-08-21T00:31:26;9.70;;;8.13;;
24419;SDS011;12599;52.426;13.330;2022-08-21T00:33:51;10.37;;;8.00;;
24419;SDS011;12599;52.426;13.330;2022-08-21T00:36:17;10.67;;;8.30;;
24419;SDS011;12599;52.426;13.330;2022-08-21T00:38:43;11.80;;;8.23;;
24419;SDS011;12599;52.426;13.330;2022-08-21T00:41:10;10.13;;;7.87;;
24419;SDS011;12599;52.426;13.330;2022-08-21T00:43:36;10.63;;;8.50;;
24419;SDS011;12599;52.426;13.330;2022-08-21T00:46:03;9.53;;;8.07;;
24419;SDS011;12599;52.426;13.330;2022-08-21T00:48:30;11.67;;;8.20;;
24419;SDS011;12599;52.426;13.330;2022-08-21T00:51:19;12.70;;;8.80;;
24419;SDS011;12599;52.426;13.330;2022-08-21T00:53:51;12.13;;;8.57;;
24419;SDS011;12599;52.426;13.330;2022-08-21T00:56:20;11.37;;;8.23;;
24419;SDS011;12599;52.426;13.330;2022-08-21T00:58:47;10.70;;;9.13;;
24419;SDS011;12599;52.426;13.330;2022-08-21T01:01:13;12.07;;;8.93;;
24419;SDS011;12599;52.426;13.330;2022-08-21T01:03:39;10.37;;;8.47;;
24419;SDS011;12599;52.426;13.330;2022-08-21T01:06:05;9.90;;;8.53;;
24419;SDS011;12599;52.426;13.330;2022-08-21T01:08:32;10.33;;;8.97;;
24419;SDS011;12599;52.426;13.330;2022-08-21T01:10:58;12.80;;;8.63;;
24419;SDS011;12599;52.426;13.330;2022-08-21T01:13:26;11.20;;;8.93;;
24419;SDS011;12599;52.426;13.330;2022-08-21T01:15:54;10.23;;;8.40;;
24419;SDS011;12599;52.426;13.330;2022-08-21T01:18:24;10.40;;;8.70;;
24419;SDS011;12599;52.426;13.330;2022-08-21T01:21:12;10.80;;;8.37;;
24419;SDS011;12599;52.426;13.330;2022-08-21T01:23:42;11.07;;;8.40;;
24419;SDS011;12599;52.426;13.330;2022-08-21T01:26:09;9.87;;;8.60;;
24419;SDS011;12599;52.426;13.330;2022-08-21T01:28:42;10.07;;;7.80;;
24419;SDS011;12599;52.426;13.330;2022-08-21T01:31:11;9.37;;;7.63;;
24419;SDS011;12599;52.426;13.330;2022-08-21T01:33:39;11.37;;;7.90;;
24419;SDS011;12599;52.426;13.330;2022-08-21T01:36:04;10.73;;;9.07;;
24419;SDS011;12599;52.426;13.330;2022-08-21T01:38:30;11.87;;;8.83;;
24419;SDS011;12599;52.426;13.330;2022-08-21T01:40:56;11.10;;;9.33;;
24419;SDS011;12599;52.426;13.330;2022-08-21T01:43:22;12.63;;;9.03;;
24419;SDS011;12599;52.426;13.330;2022-08-21T01:45:47;11.00;;;8.97;;
24419;SDS011;12599;52.426;13.330;2022-08-21T01:48:13;12.17;;;8.63;;
24419;SDS011;12599;52.426;13.330;2022-08-21T01:50:41;11.53;;;9.03;;
24419;SDS011;12599;52.426;13.330;2022-08-21T01:53:07;10.50;;;8.97;;
24419;SDS011;12599;52.426;13.330;2022-08-21T01:55:32;10.40;;;8.93;;
24419;SDS011;12599;52.426;13.330;2022-08-21T01:57:58;10.63;;;8.80;;
24419;SDS011;12599;52.426;13.330;2022-08-21T02:00:26;11.70;;;8.53;;
24419;SDS011;12599;52.426;13.330;2022-08-21T02:02:52;11.53;;;9.13;;
24419;SDS011;12599;52.426;13.330;2022-08-21T02:05:18;12.43;;;8.80;;
24419;SDS011;12599;52.426;13.330;2022-08-21T02:07:45;9.47;;;8.30;;
24419;SDS011;12599;52.426;13.330;2022-08-21T02:10:17;10.07;;;8.60;;
24419;SDS011;12599;52.426;13.330;2022-08-21T02:12:45;9.70;;;7.80;;
24419;SDS011;12599;52.426;13.330;2022-08-21T02:15:11;11.60;;;8.17;;
24419;SDS011;12599;52.426;13.330;2022-08-21T02:17:59;11.20;;;7.67;;
24419;SDS011;12599;52.426;13.330;2022-08-21T02:22:52;9.70;;;7.87;;
24419;SDS011;12599;52.426;13.330;2022-08-21T02:25:18;8.73;;;7.37;;
24419;SDS011;12599;52.426;13.330;2022-08-21T02:27:45;9.73;;;7.00;;
24419;SDS011;12599;52.426;13.330;2022-08-21T02:30:17;8.43;;;7.10;;
24419;SDS011;12599;52.426;13.330;2022-08-21T02:32:49;9.37;;;7.03;;
24419;SDS011;12599;52.426;13.330;2022-08-21T02:35:15;7.77;;;6.83;;
24419;SDS011;12599;52.426;13.330;2022-08-21T02:37:48;10.80;;;7.20;;
24419;SDS011;12599;52.426;13.330;2022-08-21T02:40:17;9.37;;;6.40;;
24419;SDS011;12599;52.426;13.330;2022-08-21T02:42:45;12.80;;;6.53;;
24419;SDS011;12599;52.426;13.330;2022-08-21T02:45:11;7.60;;;6.60;;
24419;SDS011;12599;52.426;13.330;2022-08-21T02:47:38;8.33;;;6.10;;
24419;SDS011;12599;52.426;13.330;2022-08-21T02:50:05;9.93;;;5.70;;
24419;SDS011;12599;52.426;13.330;2022-08-21T02:52:32;7.13;;;5.47;;
24419;SDS011;12599;52.426;13.330;2022-08-21T02:54:58;8.90;;;6.03;;
24419;SDS011;12599;52.426;13.330;2022-08-21T02:57:24;10.97;;;6.10;;
24419;SDS011;12599;52.426;13.330;2022-08-21T02:59:50;7.27;;;5.30;;
24419;SDS011;12599;52.426;13.330;2022-08-21T03:02:15;8.07;;;5.83;;
24419;SDS011;12599;52.426;13.330;2022-08-21T03:04:41;7.40;;;5.90;;
24419;SDS011;12599;52.426;13.330;2022-08-21T03:07:06;8.53;;;6.07;;
24419;SDS011;12599;52.426;13.330;2022-08-21T03:09:32;8.70;;;5.33;;
24419;SDS011;12599;52.426;13.330;2022-08-21T03:11:58;7.40;;;5.03;;
24419;SDS011;12599;52.426;13.330;2022-08-21T03:14:23;7.10;;;5.47;;
24419;SDS011;12599;52.426;13.330;2022-08-21T03:16:49;8.27;;;5.10;;
24419;SDS011;12599;52.426;13.330;2022-08-21T03:19:14;6.73;;;5.13;;
24419;SDS011;12599;52.426;13.330;2022-08-21T03:21:40;8.80;;;5.17;;
24419;SDS011;12599;52.426;13.330;2022-08-21T03:24:06;11.40;;;5.47;;
24419;SDS011;12599;52.426;13.330;2022-08-21T03:26:32;7.17;;;4.97;;
24419;SDS011;12599;52.426;13.330;2022-08-21T03:28:58;9.33;;;5.50;;
24419;SDS011;12599;52.426;13.330;2022-08-21T03:31:24;7.50;;;4.77;;
24419;SDS011;12599;52.426;13.330;2022-08-21T03:33:53;6.23;;;4.50;;
24419;SDS011;12599;52.426;13.330;2022-08-21T03:36:20;7.50;;;4.60;;
24419;SDS011;12599;52.426;13.330;2022-08-21T03:38:46;7.97;;;4.83;;
24419;SDS011;12599;52.426;13.330;2022-08-21T03:41:11;7.03;;;4.40;;
24419;SDS011;12599;52.426;13.330;2022-08-21T03:43:37;6.67;;;4.27;;
24419;SDS011;12599;52.426;13.330;2022-08-21T03:46:04;7.63;;;4.17;;
24419;SDS011;12599;52.426;13.330;2022-08-21T03:48:31;10.77;;;4.43;;
24419;SDS011;12599;52.426;13.330;2022-08-21T03:50:57;8.17;;;4.67;;
24419;SDS011;12599;52.426;13.330;2022-08-21T03:53:23;9.20;;;5.00;;
24419;SDS011;12599;52.426;13.330;2022-08-21T03:55:50;7.97;;;4.37;;
24419;SDS011;12599;52.426;13.330;2022-08-21T03:58:17;6.87;;;4.50;;
24419;SDS011;12599;52.426;13.330;2022-08-21T04:00:45;6.07;;;4.13;;
24419;SDS011;12599;52.426;13.330;2022-08-21T04:03:13;7.63;;;4.20;;
24419;SDS011;12599;52.426;13.330;2022-08-21T04:05:39;11.23;;;4.50;;
24419;SDS011;12599;52.426;13.330;2022-08-21T04:08:06;6.47;;;4.40;;
24419;SDS011;12599;52.426;13.330;2022-08-21T04:10:32;8.20;;;4.10;;
24419;SDS011;12599;52.426;13.330;2022-08-21T04:12:59;6.17;;;3.67;;
24419;SDS011;12599;52.426;13.330;2022-08-21T04:15:26;6.07;;;3.97;;
24419;SDS011;12599;52.426;13.330;2022-08-21T04:17:52;11.37;;;4.47;;
24419;SDS011;12599;52.426;13.330;2022-08-21T04:20:18;7.10;;;4.60;;
24419;SDS011;12599;52.426;13.330;2022-08-21T04:22:44;7.53;;;4.33;;
24419;SDS011;12599;52.426;13.330;2022-08-21T04:25:12;5.93;;;4.80;;
24419;SDS011;12599;52.426;13.330;2022-08-21T04:27:39;10.67;;;4.50;;
24419;SDS011;12599;52.426;13.330;2022-08-21T04:30:05;8.37;;;4.17;;
24419;SDS011;12599;52.426;13.330;2022-08-21T04:32:32;4.93;;;4.37;;
24419;SDS011;12599;52.426;13.330;2022-08-21T04:35:01;8.93;;;3.93;;
24419;SDS011;12599;52.426;13.330;2022-08-21T04:37:33;6.33;;;4.10;;
24419;SDS011;12599;52.426;13.330;2022-08-21T04:39:59;8.87;;;4.40;;
24419;SDS011;12599;52.426;13.330;2022-08-21T04:42:25;5.17;;;3.70;;
24419;SDS011;12599;52.426;13.330;2022-08-21T04:44:52;9.07;;;3.70;;
24419;SDS011;12599;52.426;13.330;2022-08-21T04:47:20;10.77;;;4.43;;
24419;SDS011;12599;52.426;13.330;2022-08-21T04:49:46;7.83;;;3.87;;
24419;SDS011;12599;52.426;13.330;2022-08-21T04:52:12;7.07;;;3.80;;
24419;SDS011;12599;52.426;13.330;2022-08-21T04:54:41;9.57;;;4.40;;
24419;SDS011;12599;52.426;13.330;2022-08-21T04:57:11;6.57;;;4.10;;
24419;SDS011;12599;52.426;13.330;2022-08-21T04:59:38;6.20;;;3.80;;
24419;SDS011;12599;52.426;13.330;2022-08-21T05:02:07;7.43;;;4.37;;
24419;SDS011;12599;52.426;13.330;2022-08-21T05:04:34;9.33;;;4.50;;
24419;SDS011;12599;52.426;13.330;2022-08-21T05:07:04;9.27;;;3.90;;
24419;SDS011;12599;52.426;13.330;2022-08-21T05:09:32;7.40;;;4.50;;
24419;SDS011;12599;52.426;13.330;2022-08-21T05:11:58;5.73;;;3.80;;
24419;SDS011;12599;52.426;13.330;2022-08-21T05:14:27;6.83;;;3.53;;
24419;SDS011;12599;52.426;13.330;2022-08-21T05:16:52;6.47;;;4.33;;
24419;SDS011;12599;52.426;13.330;2022-08-21T05:19:18;6.93;;;3.50;;
24419;SDS011;12599;52.426;13.330;2022-08-21T05:21:44;5.93;;;3.27;;
24419;SDS011;12599;52.426;13.330;2022-08-21T05:24:13;7.83;;;3.73;;
24419;SDS011;12599;52.426;13.330;2022-08-21T05:26:39;6.97;;;3.50;;
24419;SDS011;12599;52.426;13.330;2022-08-21T05:29:05;5.33;;;3.77;;
24419;SDS011;12599;52.426;13.330;2022-08-21T05:31:31;6.80;;;3.90;;
24419;SDS011;12599;52.426;13.330;2022-08-21T05:33:56;9.60;;;4.13;;
24419;SDS011;12599;52.426;13.330;2022-08-21T05:36:22;6.17;;;3.70;;
24419;SDS011;12599;52.426;13.330;2022-08-21T05:38:48;6.87;;;3.80;;
24419;SDS011;12599;52.426;13.330;2022-08-21T05:41:14;8.70;;;4.17;;
24419;SDS011;12599;52.426;13.330;2022-08-21T05:43:40;6.53;;;4.07;;
24419;SDS011;12599;52.426;13.330;2022-08-21T05:46:06;5.40;;;3.60;;
24419;SDS011;12599;52.426;13.330;2022-08-21T05:48:33;6.53;;;4.13;;
24419;SDS011;12599;52.426;13.330;2022-08-21T05:51:04;7.73;;;3.77;;
24419;SDS011;12599;52.426;13.330;2022-08-21T05:53:31;7.67;;;3.83;;
24419;SDS011;12599;52.426;13.330;2022-08-21T05:55:56;5.73;;;3.30;;
24419;SDS011;12599;52.426;13.330;2022-08-21T05:58:22;9.30;;;4.10;;
24419;SDS011;12599;52.426;13.330;2022-08-21T06:00:48;7.77;;;2.90;;
24419;SDS011;12599;52.426;13.330;2022-08-21T06:03:31;7.93;;;3.47;;
24419;SDS011;12599;52.426;13.330;2022-08-21T06:05:59;8.53;;;3.53;;
24419;SDS011;12599;52.426;13.330;2022-08-21T06:08:26;6.47;;;3.30;;
24419;SDS011;12599;52.426;13.330;2022-08-21T06:10:53;8.33;;;3.63;;
24419;SDS011;12599;52.426;13.330;2022-08-21T06:13:21;5.60;;;3.23;;
24419;SDS011;12599;52.426;13.330;2022-08-21T06:15:47;6.07;;;3.10;;
24419;SDS011;12599;52.426;13.330;2022-08-21T06:18:14;7.77;;;3.40;;
24419;SDS011;12599;52.426;13.330;2022-08-21T06:20:40;10.63;;;3.27;;
24419;SDS011;12599;52.426;13.330;2022-08-21T06:23:06;5.93;;;3.30;;
24419;SDS011;12599;52.426;13.330;2022-08-21T06:25:32;6.03;;;3.50;;
24419;SDS011;12599;52.426;13.330;2022-08-21T06:28:05;6.13;;;3.30;;
24419;SDS011;12599;52.426;13.330;2022-08-21T06:30:36;9.13;;;3.60;;
24419;SDS011;12599;52.426;13.330;2022-08-21T06:33:02;6.07;;;3.10;;
24419;SDS011;12599;52.426;13.330;2022-08-21T06:35:28;6.80;;;2.93;;
24419;SDS011;12599;52.426;13.330;2022-08-21T06:37:55;7.30;;;4.00;;
24419;SDS011;12599;52.426;13.330;2022-08-21T06:40:22;7.97;;;3.30;;
24419;SDS011;12599;52.426;13.330;2022-08-21T06:42:47;6.40;;;2.83;;
24419;SDS011;12599;52.426;13.330;2022-08-21T06:45:13;6.50;;;3.10;;
24419;SDS011;12599;52.426;13.330;2022-08-21T06:47:39;6.10;;;2.87;;
24419;SDS011;12599;52.426;13.330;2022-08-21T06:50:05;5.07;;;3.20;;
24419;SDS011;12599;52.426;13.330;2022-08-21T06:52:32;7.00;;;3.10;;
24419;SDS011;12599;52.426;13.330;2022-08-21T06:54:59;6.13;;;2.90;;
24419;SDS011;12599;52.426;13.330;2022-08-21T06:57:24;9.43;;;3.20;;
24419;SDS011;12599;52.426;13.330;2022-08-21T06:59:50;7.10;;;3.10;;
24419;SDS011;12599;52.426;13.330;2022-08-21T07:02:16;7.03;;;3.10;;
24419;SDS011;12599;52.426;13.330;2022-08-21T07:04:42;6.83;;;3.37;;
24419;SDS011;12599;52.426;13.330;2022-08-21T07:07:07;6.80;;;3.13;;
24419;SDS011;12599;52.426;13.330;2022-08-21T07:09:33;5.37;;;2.77;;
24419;SDS011;12599;52.426;13.330;2022-08-21T07:11:59;7.03;;;3.20;;
24419;SDS011;12599;52.426;13.330;2022-08-21T07:14:25;7.03;;;2.90;;
24419;SDS011;12599;52.426;13.330;2022-08-21T07:16:50;7.20;;;2.60;;
24419;SDS011;12599;52.426;13.330;2022-08-21T07:19:16;5.93;;;2.47;;
24419;SDS011;12599;52.426;13.330;2022-08-21T07:21:44;8.20;;;2.70;;
24419;SDS011;12599;52.426;13.330;2022-08-21T07:24:09;6.83;;;2.97;;
24419;SDS011;12599;52.426;13.330;2022-08-21T07:26:35;5.87;;;2.30;;
24419;SDS011;12599;52.426;13.330;2022-08-21T07:29:01;6.27;;;2.70;;
24419;SDS011;12599;52.426;13.330;2022-08-21T07:31:27;6.87;;;2.13;;
24419;SDS011;12599;52.426;13.330;2022-08-21T07:33:53;6.10;;;2.60;;
24419;SDS011;12599;52.426;13.330;2022-08-21T07:36:19;5.03;;;2.30;;
24419;SDS011;12599;52.426;13.330;2022-08-21T07:38:45;3.73;;;2.37;;
24419;SDS011;12599;52.426;13.330;2022-08-21T07:41:29;6.50;;;2.30;;
24419;SDS011;12599;52.426;13.330;2022-08-21T07:43:56;6.63;;;2.17;;
24419;SDS011;12599;52.426;13.330;2022-08-21T07:46:23;4.83;;;2.60;;
24419;SDS011;12599;52.426;13.330;2022-08-21T07:48:49;7.90;;;2.63;;
24419;SDS011;12599;52.426;13.330;2022-08-21T07:51:16;4.07;;;1.73;;
24419;SDS011;12599;52.426;13.330;2022-08-21T07:53:47;8.30;;;2.77;;
24419;SDS011;12599;52.426;13.330;2022-08-21T07:56:14;7.23;;;2.33;;
24419;SDS011;12599;52.426;13.330;2022-08-21T07:58:40;5.13;;;1.90;;
24419;SDS011;12599;52.426;13.330;2022-08-21T08:01:06;7.50;;;2.13;;
24419;SDS011;12599;52.426;13.330;2022-08-21T08:03:32;4.13;;;1.87;;
24419;SDS011;12599;52.426;13.330;2022-08-21T08:05:58;7.83;;;2.10;;
24419;SDS011;12599;52.426;13.330;2022-08-21T08:08:24;6.30;;;1.80;;
24419;SDS011;12599;52.426;13.330;2022-08-21T08:10:50;4.70;;;2.20;;
24419;SDS011;12599;52.426;13.330;2022-08-21T08:13:16;7.87;;;2.20;;
24419;SDS011;12599;52.426;13.330;2022-08-21T08:15:42;5.07;;;2.50;;
24419;SDS011;12599;52.426;13.330;2022-08-21T08:18:07;3.47;;;2.23;;
24419;SDS011;12599;52.426;13.330;2022-08-21T08:20:33;5.17;;;2.00;;
24419;SDS011;12599;52.426;13.330;2022-08-21T08:22:59;3.97;;;1.70;;
24419;SDS011;12599;52.426;13.330;2022-08-21T08:25:25;4.43;;;1.83;;
24419;SDS011;12599;52.426;13.330;2022-08-21T08:27:51;7.23;;;2.33;;
24419;SDS011;12599;52.426;13.330;2022-08-21T08:30:18;5.83;;;2.40;;
24419;SDS011;12599;52.426;13.330;2022-08-21T08:32:44;7.00;;;2.30;;
24419;SDS011;12599;52.426;13.330;2022-08-21T08:35:13;5.03;;;1.87;;
24419;SDS011;12599;52.426;13.330;2022-08-21T08:37:39;4.20;;;2.10;;
24419;SDS011;12599;52.426;13.330;2022-08-21T08:40:06;6.67;;;2.30;;
24419;SDS011;12599;52.426;13.330;2022-08-21T08:42:37;6.00;;;2.00;;
24419;SDS011;12599;52.426;13.330;2022-08-21T08:47:34;6.30;;;2.03;;
24419;SDS011;12599;52.426;13.330;2022-08-21T08:50:15;7.03;;;2.40;;
24419;SDS011;12599;52.426;13.330;2022-08-21T08:52:51;7.13;;;2.40;;
24419;SDS011;12599;52.426;13.330;2022-08-21T08:55:37;10.30;;;2.43;;
24419;SDS011;12599;52.426;13.330;2022-08-21T08:58:06;7.87;;;2.47;;
24419;SDS011;12599;52.426;13.330;2022-08-21T09:00:33;8.50;;;2.23;;
24419;SDS011;12599;52.426;13.330;2022-08-21T09:03:00;5.27;;;2.20;;
24419;SDS011;12599;52.426;13.330;2022-08-21T09:05:28;4.60;;;2.03;;
24419;SDS011;12599;52.426;13.330;2022-08-21T09:10:36;8.03;;;2.80;;
24419;SDS011;12599;52.426;13.330;2022-08-21T09:24:45;4.17;;;2.17;;
24419;SDS011;12599;52.426;13.330;2022-08-21T09:27:16;6.63;;;2.73;;
24419;SDS011;12599;52.426;13.330;2022-08-21T09:29:45;6.53;;;2.30;;
24419;SDS011;12599;52.426;13.330;2022-08-21T09:32:19;8.67;;;2.43;;
24419;SDS011;12599;52.426;13.330;2022-08-21T09:37:31;5.03;;;2.20;;
24419;SDS011;12599;52.426;13.330;2022-08-21T09:43:23;6.47;;;2.60;;
24419;SDS011;12599;52.426;13.330;2022-08-21T09:46:02;7.33;;;2.90;;
24419;SDS011;12599;52.426;13.330;2022-08-21T09:48:41;5.43;;;2.03;;
24419;SDS011;12599;52.426;13.330;2022-08-21T09:51:16;6.60;;;2.40;;
24419;SDS011;12599;52.426;13.330;2022-08-21T09:53:45;6.30;;;2.50;;
24419;SDS011;12599;52.426;13.330;2022-08-21T09:56:17;7.40;;;2.50;;
24419;SDS011;12599;52.426;13.330;2022-08-21T10:01:44;6.37;;;2.13;;
24419;SDS011;12599;52.426;13.330;2022-08-21T10:04:12;4.50;;;2.20;;
24419;SDS011;12599;52.426;13.330;2022-08-21T10:06:39;3.07;;;1.70;;
24419;SDS011;12599;52.426;13.330;2022-08-21T10:11:33;4.83;;;1.87;;
24419;SDS011;12599;52.426;13.330;2022-08-21T10:14:18;4.10;;;1.63;;
24419;SDS011;12599;52.426;13.330;2022-08-21T10:19:43;3.80;;;2.07;;
24419;SDS011;12599;52.426;13.330;2022-08-21T10:25:04;4.93;;;1.57;;
24419;SDS011;12599;52.426;13.330;2022-08-21T10:27:49;6.37;;;1.60;;
24419;SDS011;12599;52.426;13.330;2022-08-21T10:30:38;2.60;;;1.37;;
24419;SDS011;12599;52.426;13.330;2022-08-21T10:36:28;2.73;;;1.30;;
24419;SDS011;12599;52.426;13.330;2022-08-21T10:47:54;4.53;;;1.70;;
24419;SDS011;12599;52.426;13.330;2022-08-21T10:55:41;3.03;;;1.83;;
24419;SDS011;12599;52.426;13.330;2022-08-21T11:00:55;5.67;;;2.13;;
24419;SDS011;12599;52.426;13.330;2022-08-21T11:03:48;5.27;;;1.83;;
24419;SDS011;12599;52.426;13.330;2022-08-21T11:06:18;2.63;;;1.73;;
24419;SDS011;12599;52.426;13.330;2022-08-21T11:08:53;3.07;;;1.47;;
24419;SDS011;12599;52.426;13.330;2022-08-21T11:11:31;5.33;;;1.43;;
24419;SDS011;12599;52.426;13.330;2022-08-21T11:14:07;3.70;;;1.50;;
24419;SDS011;12599;52.426;13.330;2022-08-21T11:16:53;2.53;;;1.17;;
24419;SDS011;12599;52.426;13.330;2022-08-21T11:20:28;8.23;;;1.70;;
24419;SDS011;12599;52.426;13.330;2022-08-21T11:22:39;3.17;;;1.60;;
24419;SDS011;12599;52.426;13.330;2022-08-21T11:30:19;4.83;;;1.80;;
24419;SDS011;12599;52.426;13.330;2022-08-21T11:35:51;2.40;;;1.50;;
24419;SDS011;12599;52.426;13.330;2022-08-21T11:38:35;2.50;;;1.43;;
24419;SDS011;12599;52.426;13.330;2022-08-21T11:41:20;3.70;;;1.43;;
24419;SDS011;12599;52.426;13.330;2022-08-21T11:44:06;3.33;;;1.80;;
24419;SDS011;12599;52.426;13.330;2022-08-21T11:49:06;2.40;;;1.53;;
24419;SDS011;12599;52.426;13.330;2022-08-21T11:54:54;2.60;;;1.23;;
24419;SDS011;12599;52.426;13.330;2022-08-21T12:02:38;2.13;;;1.43;;
24419;SDS011;12599;52.426;13.330;2022-08-21T12:05:11;2.83;;;1.60;;
24419;SDS011;12599;52.426;13.330;2022-08-21T12:07:59;4.27;;;1.50;;
24419;SDS011;12599;52.426;13.330;2022-08-21T12:10:36;4.30;;;1.47;;
24419;SDS011;12599;52.426;13.330;2022-08-21T12:13:08;4.03;;;1.63;;
24419;SDS011;12599;52.426;13.330;2022-08-21T12:15:48;2.67;;;1.10;;
24419;SDS011;12599;52.426;13.330;2022-08-21T12:18:27;1.97;;;1.30;;
24419;SDS011;12599;52.426;13.330;2022-08-21T12:26:34;2.83;;;1.00;;
24419;SDS011;12599;52.426;13.330;2022-08-21T12:29:32;2.50;;;1.90;;
24419;SDS011;12599;52.426;13.330;2022-08-21T12:37:15;3.90;;;1.40;;
24419;SDS011;12599;52.426;13.330;2022-08-21T12:40:03;2.47;;;1.30;;
24419;SDS011;12599;52.426;13.330;2022-08-21T12:42:41;1.43;;;1.23;;
24419;SDS011;12599;52.426;13.330;2022-08-21T12:45:19;2.13;;;1.17;;
24419;SDS011;12599;52.426;13.330;2022-08-21T12:48:06;4.77;;;1.20;;
24419;SDS011;12599;52.426;13.330;2022-08-21T12:50:46;5.13;;;1.80;;
24419;SDS011;12599;52.426;13.330;2022-08-21T12:56:09;3.67;;;1.63;;
24419;SDS011;12599;52.426;13.330;2022-08-21T12:58:39;2.67;;;1.43;;
24419;SDS011;12599;52.426;13.330;2022-08-21T13:04:07;3.97;;;1.70;;
24419;SDS011;12599;52.426;13.330;2022-08-21T13:06:38;4.37;;;1.87;;
24419;SDS011;12599;52.426;13.330;2022-08-21T13:09:08;3.30;;;1.70;;
24419;SDS011;12599;52.426;13.330;2022-08-21T13:14:17;4.60;;;1.87;;
24419;SDS011;12599;52.426;13.330;2022-08-21T13:16:54;6.67;;;2.40;;
24419;SDS011;12599;52.426;13.330;2022-08-21T13:19:21;3.80;;;1.90;;
24419;SDS011;12599;52.426;13.330;2022-08-21T13:21:48;3.00;;;1.90;;
24419;SDS011;12599;52.426;13.330;2022-08-21T13:24:19;3.50;;;1.83;;
24419;SDS011;12599;52.426;13.330;2022-08-21T13:26:45;7.63;;;1.90;;
24419;SDS011;12599;52.426;13.330;2022-08-21T13:29:14;4.77;;;2.30;;
24419;SDS011;12599;52.426;13.330;2022-08-21T13:31:46;4.10;;;1.87;;
24419;SDS011;12599;52.426;13.330;2022-08-21T13:34:25;4.23;;;1.93;;
24419;SDS011;12599;52.426;13.330;2022-08-21T13:36:56;7.03;;;2.20;;
24419;SDS011;12599;52.426;13.330;2022-08-21T13:39:24;7.63;;;2.40;;
24419;SDS011;12599;52.426;13.330;2022-08-21T13:41:51;5.37;;;2.37;;
24419;SDS011;12599;52.426;13.330;2022-08-21T13:44:21;5.43;;;2.63;;
24419;SDS011;12599;52.426;13.330;2022-08-21T13:46:51;5.83;;;2.07;;
24419;SDS011;12599;52.426;13.330;2022-08-21T13:49:20;7.07;;;2.17;;
24419;SDS011;12599;52.426;13.330;2022-08-21T13:51:51;5.00;;;2.27;;
24419;SDS011;12599;52.426;13.330;2022-08-21T13:54:21;5.47;;;1.90;;
24419;SDS011;12599;52.426;13.330;2022-08-21T13:56:51;2.53;;;1.60;;
24419;SDS011;12599;52.426;13.330;2022-08-21T13:59:30;3.07;;;2.10;;
24419;SDS011;12599;52.426;13.330;2022-08-21T14:02:08;6.43;;;2.10;;
24419;SDS011;12599;52.426;13.330;2022-08-21T14:04:39;4.93;;;2.10;;
24419;SDS011;12599;52.426;13.330;2022-08-21T14:07:25;3.17;;;1.87;;
24419;SDS011;12599;52.426;13.330;2022-08-21T14:09:59;5.43;;;1.93;;
24419;SDS011;12599;52.426;13.330;2022-08-21T14:12:29;4.53;;;2.20;;
24419;SDS011;12599;52.426;13.330;2022-08-21T14:15:03;5.03;;;2.20;;
24419;SDS011;12599;52.426;13.330;2022-08-21T14:17:34;6.40;;;2.20;;
24419;SDS011;12599;52.426;13.330;2022-08-21T14:20:04;6.23;;;2.43;;
24419;SDS011;12599;52.426;13.330;2022-08-21T14:22:42;3.63;;;2.10;;
24419;SDS011;12599;52.426;13.330;2022-08-21T14:27:48;5.93;;;2.10;;
24419;SDS011;12599;52.426;13.330;2022-08-21T14:30:36;4.67;;;1.90;;
24419;SDS011;12599;52.426;13.330;2022-08-21T14:33:07;2.83;;;1.77;;
24419;SDS011;12599;52.426;13.330;2022-08-21T14:35:38;6.30;;;2.37;;
24419;SDS011;12599;52.426;13.330;2022-08-21T14:38:12;3.50;;;1.77;;
24419;SDS011;12599;52.426;13.330;2022-08-21T14:40:39;6.70;;;2.00;;
24419;SDS011;12599;52.426;13.330;2022-08-21T14:43:07;6.10;;;1.97;;
24419;SDS011;12599;52.426;13.330;2022-08-21T14:45:33;6.03;;;1.87;;
24419;SDS011;12599;52.426;13.330;2022-08-21T14:48:01;4.77;;;1.90;;
24419;SDS011;12599;52.426;13.330;2022-08-21T14:50:27;6.27;;;2.13;;
24419;SDS011;12599;52.426;13.330;2022-08-21T14:52:53;4.27;;;2.07;;
24419;SDS011;12599;52.426;13.330;2022-08-21T14:55:19;5.37;;;2.00;;
24419;SDS011;12599;52.426;13.330;2022-08-21T14:57:46;5.43;;;2.07;;
24419;SDS011;12599;52.426;13.330;2022-08-21T15:00:14;5.23;;;2.37;;
24419;SDS011;12599;52.426;13.330;2022-08-21T15:02:47;6.50;;;2.47;;
24419;SDS011;12599;52.426;13.330;2022-08-21T15:05:13;4.93;;;2.07;;
24419;SDS011;12599;52.426;13.330;2022-08-21T15:07:40;5.63;;;2.40;;
24419;SDS011;12599;52.426;13.330;2022-08-21T15:10:06;7.30;;;2.30;;
24419;SDS011;12599;52.426;13.330;2022-08-21T15:12:32;5.27;;;2.33;;
24419;SDS011;12599;52.426;13.330;2022-08-21T15:14:58;5.33;;;1.90;;
24419;SDS011;12599;52.426;13.330;2022-08-21T15:17:23;3.90;;;2.27;;
24419;SDS011;12599;52.426;13.330;2022-08-21T15:19:49;4.07;;;1.87;;
24419;SDS011;12599;52.426;13.330;2022-08-21T15:22:15;8.90;;;2.30;;
24419;SDS011;12599;52.426;13.330;2022-08-21T15:24:41;4.70;;;1.80;;
24419;SDS011;12599;52.426;13.330;2022-08-21T15:27:07;7.30;;;2.30;;
24419;SDS011;12599;52.426;13.330;2022-08-21T15:29:35;7.83;;;2.63;;
24419;SDS011;12599;52.426;13.330;2022-08-21T15:32:18;4.03;;;2.17;;
24419;SDS011;12599;52.426;13.330;2022-08-21T15:34:54;6.10;;;2.20;;
24419;SDS011;12599;52.426;13.330;2022-08-21T15:37:20;6.03;;;2.20;;
24419;SDS011;12599;52.426;13.330;2022-08-21T15:39:47;4.80;;;2.37;;
24419;SDS011;12599;52.426;13.330;2022-08-21T15:42:13;5.70;;;2.23;;
24419;SDS011;12599;52.426;13.330;2022-08-21T15:44:39;4.47;;;2.40;;
24419;SDS011;12599;52.426;13.330;2022-08-21T15:47:08;3.70;;;1.97;;
24419;SDS011;12599;52.426;13.330;2022-08-21T15:49:38;5.73;;;2.13;;
24419;SDS011;12599;52.426;13.330;2022-08-21T15:52:04;5.93;;;2.53;;
24419;SDS011;12599;52.426;13.330;2022-08-21T15:54:30;3.50;;;2.00;;
24419;SDS011;12599;52.426;13.330;2022-08-21T15:56:55;8.73;;;2.60;;
24419;SDS011;12599;52.426;13.330;2022-08-21T15:59:21;4.67;;;2.30;;
24419;SDS011;12599;52.426;13.330;2022-08-21T16:01:50;6.00;;;2.43;;
24419;SDS011;12599;52.426;13.330;2022-08-21T16:04:26;4.37;;;2.23;;
24419;SDS011;12599;52.426;13.330;2022-08-21T16:06:53;7.27;;;2.60;;
24419;SDS011;12599;52.426;13.330;2022-08-21T16:09:19;7.40;;;2.47;;
24419;SDS011;12599;52.426;13.330;2022-08-21T16:11:45;4.20;;;2.00;;
24419;SDS011;12599;52.426;13.330;2022-08-21T16:14:14;3.80;;;2.30;;
24419;SDS011;12599;52.426;13.330;2022-08-21T16:16:41;10.13;;;3.83;;
24419;SDS011;12599;52.426;13.330;2022-08-21T16:19:08;4.80;;;2.40;;
24419;SDS011;12599;52.426;13.330;2022-08-21T16:21:35;5.20;;;2.83;;
24419;SDS011;12599;52.426;13.330;2022-08-21T16:24:01;5.83;;;2.60;;